createdAt,value
2023-12-03T00:01:18.772Z,11.9
2023-12-03T00:02:59.132Z,11.9
2023-12-03T00:04:39.625Z,11.9
2023-12-03T00:06:20.215Z,11.9
2023-12-03T00:08:00.485Z,11.9
2023-12-03T00:09:41.004Z,11.9
2023-12-03T00:11:21.282Z,13.3
2023-12-03T00:13:01.730Z,13.3
2023-12-03T00:14:42.195Z,13.3
2023-12-03T00:16:22.509Z,13.3
2023-12-03T00:18:02.871Z,13.3
2023-12-03T00:19:43.372Z,13.3
2023-12-03T00:21:24.195Z,12.9
2023-12-03T00:23:04.098Z,12.9
2023-12-03T00:24:44.551Z,12.9
2023-12-03T00:26:25.013Z,12.9
2023-12-03T00:28:05.439Z,12.9
2023-12-03T00:29:45.770Z,12.9
2023-12-03T00:31:26.270Z,11.9
2023-12-03T00:33:06.698Z,11.9
2023-12-03T00:34:47.009Z,11.9
2023-12-03T00:36:27.446Z,11.9
2023-12-03T00:38:07.807Z,11.9
2023-12-03T00:39:48.159Z,11.9
2023-12-03T00:41:28.573Z,14.3
2023-12-03T00:43:09.028Z,14.3
2023-12-03T00:44:49.373Z,14.3
2023-12-03T00:46:29.821Z,14.3
2023-12-03T00:48:10.389Z,14.3
2023-12-03T00:49:50.685Z,14.3
2023-12-03T00:51:31.080Z,12.4
2023-12-03T00:53:11.457Z,12.4
2023-12-03T00:54:51.890Z,12.4
2023-12-03T00:56:32.243Z,12.4
2023-12-03T00:58:12.567Z,12.4
2023-12-03T00:59:52.920Z,12.4
2023-12-03T01:01:33.425Z,12
2023-12-03T01:03:13.846Z,12
2023-12-03T01:04:54.407Z,12
2023-12-03T01:06:35.012Z,12
2023-12-03T01:08:15.110Z,12
2023-12-03T01:09:55.560Z,12
2023-12-03T01:11:36.877Z,12
2023-12-03T01:13:16.465Z,14.6
2023-12-03T01:14:56.805Z,14.6
2023-12-03T01:16:37.216Z,14.6
2023-12-03T01:18:17.744Z,14.6
2023-12-03T01:19:57.964Z,14.6
2023-12-03T01:21:38.331Z,14.6
2023-12-03T01:23:18.748Z,13.7
2023-12-03T01:24:59.185Z,13.7
2023-12-03T01:26:39.425Z,13.7
2023-12-03T01:28:19.838Z,13.7
2023-12-03T01:30:00.290Z,13.7
2023-12-03T01:31:40.538Z,11.3
2023-12-03T01:33:21.265Z,11.3
2023-12-03T01:35:01.469Z,11.3
2023-12-03T01:36:42.025Z,11.3
2023-12-03T01:38:22.182Z,11.3
2023-12-03T01:40:02.592Z,11.3
2023-12-03T01:41:42.897Z,11.3
2023-12-03T01:43:23.262Z,12.5
2023-12-03T01:45:03.653Z,12.5
2023-12-03T01:46:44.043Z,12.5
2023-12-03T01:48:24.523Z,12.5
2023-12-03T01:50:04.863Z,12.5
2023-12-03T01:51:45.413Z,12.5
2023-12-03T01:53:25.833Z,11.5
2023-12-03T01:55:06.228Z,11.5
2023-12-03T01:56:46.682Z,11.5
2023-12-03T01:58:27.109Z,11.5
2023-12-03T02:00:07.459Z,11.5
2023-12-03T02:01:47.890Z,11.5
2023-12-03T02:03:28.337Z,10.55
2023-12-03T02:05:08.974Z,10.55
2023-12-03T02:06:49.289Z,10.55
2023-12-03T02:08:29.596Z,10.55
2023-12-03T02:10:10.018Z,10.55
2023-12-03T02:11:50.468Z,10.55
2023-12-03T02:13:30.917Z,13
2023-12-03T02:15:11.400Z,13
2023-12-03T02:16:51.712Z,13
2023-12-03T02:18:32.274Z,13
2023-12-03T02:20:12.620Z,13
2023-12-03T02:21:53.124Z,13
2023-12-03T02:23:33.570Z,13.2
2023-12-03T02:25:14.008Z,13.2
2023-12-03T02:26:54.400Z,13.2
2023-12-03T02:28:34.807Z,13.2
2023-12-03T02:30:15.281Z,13.2
2023-12-03T02:31:55.658Z,13.2
2023-12-03T02:33:36.076Z,14.1
2023-12-03T02:35:16.378Z,14.1
2023-12-03T02:36:56.696Z,14.1
2023-12-03T02:38:37.147Z,14.1
2023-12-03T02:40:17.570Z,14.1
2023-12-03T02:41:57.976Z,14.1
2023-12-03T02:43:38.360Z,13.4
2023-12-03T02:45:18.840Z,13.4
2023-12-03T02:46:59.241Z,13.4
2023-12-03T02:48:39.757Z,13.4
2023-12-03T02:50:20.068Z,13.4
2023-12-03T02:52:00.588Z,13.4
2023-12-03T02:53:41.014Z,11.8
2023-12-03T02:55:21.348Z,11.8
2023-12-03T02:57:01.760Z,11.8
2023-12-03T02:58:42.170Z,11.8
2023-12-03T03:00:22.768Z,11.8
2023-12-03T03:02:03.158Z,11.8
2023-12-03T03:05:24.089Z,14.6
2023-12-03T03:07:04.498Z,14.6
2023-12-03T03:08:44.911Z,14.6
2023-12-03T03:10:25.378Z,14.6
2023-12-03T03:12:05.834Z,14.6
2023-12-03T03:13:46.268Z,12.9
2023-12-03T03:15:26.730Z,12.9
2023-12-03T03:17:07.059Z,12.9
2023-12-03T03:18:47.608Z,12.9
2023-12-03T03:20:28.083Z,12.9
2023-12-03T03:22:08.492Z,12.9
2023-12-03T03:23:48.944Z,15.1
2023-12-03T03:25:29.416Z,15.1
2023-12-03T03:27:09.889Z,15.1
2023-12-03T03:28:50.276Z,15.1
2023-12-03T03:30:30.850Z,15.1
2023-12-03T03:32:11.178Z,15.1
2023-12-03T03:33:51.652Z,14.9
2023-12-03T03:35:32.075Z,14.9
2023-12-03T03:37:12.430Z,14.9
2023-12-03T03:38:52.835Z,14.9
2023-12-03T03:40:33.248Z,14.9
2023-12-03T03:42:13.612Z,14.9
2023-12-03T03:43:53.878Z,15.5
2023-12-03T03:45:34.366Z,15.5
2023-12-03T03:47:14.720Z,15.5
2023-12-03T03:48:55.210Z,15.5
2023-12-03T03:50:35.676Z,15.5
2023-12-03T03:52:16.089Z,15.5
2023-12-03T03:53:56.578Z,15
2023-12-03T03:55:37.044Z,15
2023-12-03T03:57:17.428Z,15
2023-12-03T03:58:57.836Z,15
2023-12-03T04:00:38.266Z,15
2023-12-03T04:02:18.707Z,15
2023-12-03T04:03:59.154Z,16.2
2023-12-03T04:05:39.399Z,16.2
2023-12-03T04:07:19.905Z,16.2
2023-12-03T04:09:00.142Z,16.2
2023-12-03T04:10:40.570Z,16.2
2023-12-03T04:12:20.932Z,16.2
2023-12-03T04:14:01.372Z,16.3
2023-12-03T04:15:41.745Z,16.3
2023-12-03T04:17:22.118Z,16.3
2023-12-03T04:19:02.720Z,16.3
2023-12-03T04:20:42.974Z,16.3
2023-12-03T04:22:23.403Z,16.3
2023-12-03T04:24:03.734Z,16.2
2023-12-03T04:25:44.103Z,16.2
2023-12-03T04:27:24.455Z,16.2
2023-12-03T04:29:04.888Z,16.2
2023-12-03T04:30:45.272Z,16.2
2023-12-03T04:32:25.767Z,16.2
2023-12-03T04:34:06.061Z,14.7
2023-12-03T04:35:46.347Z,14.7
2023-12-03T04:37:26.797Z,14.7
2023-12-03T04:39:07.176Z,14.7
2023-12-03T04:40:47.549Z,14.7
2023-12-03T04:42:27.933Z,14.7
2023-12-03T04:44:08.340Z,15
2023-12-03T04:45:48.755Z,15
2023-12-03T04:47:29.317Z,15
2023-12-03T04:49:09.656Z,15
2023-12-03T04:50:49.998Z,15
2023-12-03T04:52:30.446Z,15
2023-12-03T04:54:10.984Z,14.2
2023-12-03T04:55:51.304Z,14.2
2023-12-03T04:57:31.704Z,14.2
2023-12-03T04:59:11.981Z,14.2
2023-12-03T05:00:52.482Z,14.2
2023-12-03T05:02:32.765Z,14.2
2023-12-03T05:04:13.277Z,11.9
2023-12-03T05:05:53.539Z,11.9
2023-12-03T05:07:34.183Z,11.9
2023-12-03T05:09:14.515Z,11.9
2023-12-03T05:10:54.805Z,11.9
2023-12-03T05:12:35.284Z,11.9
2023-12-03T05:14:15.756Z,10.3
2023-12-03T05:15:56.110Z,10.3
2023-12-03T05:17:38.284Z,10.3
2023-12-03T05:19:17.061Z,10.3
2023-12-03T05:20:57.361Z,10.3
2023-12-03T05:22:37.785Z,10.3
2023-12-03T05:24:18.245Z,13.4
2023-12-03T05:25:58.758Z,13.4
2023-12-03T05:27:39.090Z,13.4
2023-12-03T05:29:19.474Z,13.4
2023-12-03T05:30:59.917Z,13.4
2023-12-03T05:32:40.670Z,13.4
2023-12-03T05:34:20.903Z,13.7
2023-12-03T05:36:01.177Z,13.7
2023-12-03T05:37:41.628Z,13.7
2023-12-03T05:39:22.076Z,13.7
2023-12-03T05:41:02.444Z,13.7
2023-12-03T05:42:42.855Z,13.7
2023-12-03T05:44:23.299Z,13.1
2023-12-03T05:46:03.724Z,13.1
2023-12-03T05:47:44.191Z,13.1
2023-12-03T05:49:24.635Z,13.1
2023-12-03T05:51:04.951Z,13.1
2023-12-03T05:52:45.355Z,13.1
2023-12-03T05:54:25.787Z,14.4
2023-12-03T05:56:06.212Z,14.4
2023-12-03T05:57:46.681Z,14.4
2023-12-03T05:59:27.036Z,14.4
2023-12-03T06:01:07.417Z,14.4
2023-12-03T06:02:47.875Z,14.4
2023-12-03T06:04:28.306Z,14.4
2023-12-03T06:06:08.727Z,14.4
2023-12-03T06:07:49.333Z,14.4
2023-12-03T06:09:29.548Z,14.4
2023-12-03T06:11:09.922Z,14.4
2023-12-03T06:12:50.285Z,14.4
2023-12-03T06:14:30.641Z,14.1
2023-12-03T06:16:11.053Z,14.1
2023-12-03T06:17:51.592Z,14.1
2023-12-03T06:19:31.937Z,14.1
2023-12-03T06:21:12.344Z,14.1
2023-12-03T06:22:52.706Z,14.1
2023-12-03T06:24:33.186Z,15.6
2023-12-03T06:26:13.518Z,15.6
2023-12-03T06:27:53.873Z,15.6
2023-12-03T06:29:34.246Z,15.6
2023-12-03T06:31:14.644Z,15.6
2023-12-03T06:32:55.029Z,15.6
2023-12-03T06:34:35.363Z,15.1
2023-12-03T06:36:15.768Z,15.1
2023-12-03T06:37:56.151Z,15.1
2023-12-03T06:39:36.599Z,15.1
2023-12-03T06:41:16.953Z,15.1
2023-12-03T06:42:57.443Z,15.1
2023-12-03T06:44:44.177Z,15.4
2023-12-03T06:46:18.148Z,15.4
2023-12-03T06:47:58.619Z,15.4
2023-12-03T06:49:39.114Z,15.4
2023-12-03T06:51:19.491Z,15.4
2023-12-03T06:52:59.801Z,15.4
2023-12-03T06:54:40.230Z,13.1
2023-12-03T06:56:20.633Z,13.1
2023-12-03T06:58:01.105Z,13.1
2023-12-03T06:59:41.518Z,13.1
2023-12-03T07:01:21.908Z,13.1
2023-12-03T07:03:02.296Z,13.1
2023-12-03T07:04:43.107Z,14.8
2023-12-03T07:06:23.151Z,14.8
2023-12-03T07:08:03.515Z,14.8
2023-12-03T07:09:43.925Z,14.8
2023-12-03T07:11:24.399Z,14.8
2023-12-03T07:13:04.721Z,14.8
2023-12-03T07:14:45.114Z,15
2023-12-03T07:16:25.591Z,15
2023-12-03T07:18:05.981Z,15
2023-12-03T07:19:46.412Z,15
2023-12-03T07:21:26.847Z,15
2023-12-03T07:23:07.151Z,15
2023-12-03T07:24:47.548Z,15
2023-12-03T07:26:27.931Z,17.3
2023-12-03T07:28:08.395Z,17.3
2023-12-03T07:29:48.791Z,17.3
2023-12-03T07:31:29.205Z,17.3
2023-12-03T07:33:09.737Z,17.3
2023-12-03T07:34:49.994Z,17.3
2023-12-03T07:36:30.349Z,17.4
2023-12-03T07:38:10.782Z,17.4
2023-12-03T07:39:51.267Z,17.4
2023-12-03T07:41:31.666Z,17.4
2023-12-03T07:43:12.078Z,17.4
2023-12-03T07:44:52.498Z,17.4
2023-12-03T07:46:32.910Z,14.95
2023-12-03T07:48:13.360Z,14.95
2023-12-03T07:49:53.807Z,14.95
2023-12-03T07:51:34.218Z,14.95
2023-12-03T07:53:14.634Z,14.95
2023-12-03T07:54:55.039Z,14.95
2023-12-03T07:56:35.346Z,13.85
2023-12-03T07:58:15.769Z,13.85
2023-12-03T07:59:56.216Z,13.85
2023-12-03T08:01:36.624Z,13.85
2023-12-03T08:03:17.016Z,13.85
2023-12-03T08:04:57.515Z,13.85
2023-12-03T08:06:37.887Z,15.6
2023-12-03T08:08:18.357Z,15.6
2023-12-03T08:09:58.818Z,15.6
2023-12-03T08:11:39.255Z,15.6
2023-12-03T08:13:19.786Z,15.6
2023-12-03T08:15:00.246Z,15.6
2023-12-03T08:16:40.559Z,10.2
2023-12-03T08:18:20.963Z,10.2
2023-12-03T08:20:01.374Z,10.2
2023-12-03T08:21:41.675Z,10.2
2023-12-03T08:23:22.045Z,10.2
2023-12-03T08:25:02.352Z,10.2
2023-12-03T08:26:42.777Z,12
2023-12-03T08:28:23.247Z,12
2023-12-03T08:30:03.687Z,12
2023-12-03T08:31:44.533Z,12
2023-12-03T08:33:24.457Z,12
2023-12-03T08:35:04.811Z,12
2023-12-03T08:36:45.220Z,14.3
2023-12-03T08:38:25.578Z,14.3
2023-12-03T08:40:06.028Z,14.3
2023-12-03T08:41:46.404Z,14.3
2023-12-03T08:43:26.860Z,14.3
2023-12-03T08:45:07.276Z,14.3
2023-12-03T08:46:47.673Z,13.2
2023-12-03T08:48:28.209Z,13.2
2023-12-03T08:50:08.602Z,13.2
2023-12-03T08:51:49.106Z,13.2
2023-12-03T08:53:29.467Z,13.2
2023-12-03T08:55:09.889Z,13.2
2023-12-03T08:56:50.270Z,14.1
2023-12-03T08:58:30.594Z,14.1
2023-12-03T09:00:10.939Z,14.1
2023-12-03T09:01:51.319Z,14.1
2023-12-03T09:03:31.899Z,14.1
2023-12-03T09:05:12.169Z,14.1
2023-12-03T09:06:52.661Z,14.3
2023-12-03T09:08:32.950Z,14.3
2023-12-03T09:10:13.323Z,14.3
2023-12-03T09:11:53.813Z,14.3
2023-12-03T09:13:34.172Z,14.3
2023-12-03T09:15:14.581Z,14.3
2023-12-03T09:16:55.022Z,14.4
2023-12-03T09:18:35.805Z,14.4
2023-12-03T09:20:15.796Z,14.4
2023-12-03T09:21:56.301Z,14.4
2023-12-03T09:23:36.651Z,14.4
2023-12-03T09:25:16.949Z,14.4
2023-12-03T09:26:57.374Z,14.8
2023-12-03T09:28:37.809Z,14.8
2023-12-03T09:30:18.212Z,14.8
2023-12-03T09:31:58.593Z,14.8
2023-12-03T09:33:39.144Z,14.8
2023-12-03T09:35:19.483Z,14.8
2023-12-03T09:36:59.945Z,15.6
2023-12-03T09:38:42.799Z,15.6
2023-12-03T09:40:20.758Z,15.6
2023-12-03T09:42:01.130Z,15.6
2023-12-03T09:43:41.653Z,15.6
2023-12-03T09:45:21.997Z,15.6
2023-12-03T09:47:02.417Z,14.3
2023-12-03T09:48:42.930Z,14.3
2023-12-03T09:50:23.209Z,14.3
2023-12-03T09:52:03.680Z,14.3
2023-12-03T09:53:44.057Z,14.3
2023-12-03T09:55:24.443Z,14.3
2023-12-03T09:57:04.812Z,14.7
2023-12-03T09:58:45.196Z,14.7
2023-12-03T10:00:25.518Z,14.7
2023-12-03T10:02:06.118Z,14.7
2023-12-03T10:03:46.802Z,14.7
2023-12-03T10:05:27.062Z,14.7
2023-12-03T10:07:07.340Z,17.4
2023-12-03T10:08:47.819Z,17.4
2023-12-03T10:10:28.219Z,17.4
2023-12-03T10:12:08.458Z,17.4
2023-12-03T10:13:48.950Z,17.4
2023-12-03T10:15:29.368Z,17.4
2023-12-03T10:17:09.799Z,18.2
2023-12-03T10:18:50.293Z,18.2
2023-12-03T10:20:30.719Z,18.2
2023-12-03T10:22:11.169Z,18.2
2023-12-03T10:23:51.613Z,18.2
2023-12-03T10:25:32.132Z,18.2
2023-12-03T10:27:12.569Z,13.4
2023-12-03T10:28:52.906Z,13.4
2023-12-03T10:30:33.391Z,13.4
2023-12-03T10:32:13.852Z,13.4
2023-12-03T10:33:54.308Z,13.4
2023-12-03T10:35:34.760Z,13.4
2023-12-03T10:37:15.084Z,13.1
2023-12-03T10:38:55.557Z,13.1
2023-12-03T10:40:36.022Z,13.1
2023-12-03T10:42:16.515Z,13.1
2023-12-03T10:43:56.968Z,13.1
2023-12-03T10:45:37.964Z,13.1
2023-12-03T10:47:17.822Z,14.4
2023-12-03T10:48:58.286Z,14.4
2023-12-03T10:50:38.663Z,14.4
2023-12-03T10:52:19.112Z,14.4
2023-12-03T10:53:59.556Z,14.4
2023-12-03T10:55:40.034Z,14.4
2023-12-03T10:57:20.564Z,11.6
2023-12-03T10:59:00.956Z,11.6
2023-12-03T11:00:41.521Z,11.6
2023-12-03T11:02:21.754Z,11.6
2023-12-03T11:04:02.303Z,11.6
2023-12-03T11:05:42.784Z,11.6
2023-12-03T11:07:23.124Z,11
2023-12-03T11:09:03.607Z,11
2023-12-03T11:10:44.014Z,11
2023-12-03T11:12:24.551Z,11
2023-12-03T11:14:04.852Z,11
2023-12-03T11:15:45.282Z,11
2023-12-03T11:17:25.692Z,9.3
2023-12-03T11:19:06.260Z,9.3
2023-12-03T11:20:46.630Z,9.3
2023-12-03T11:22:27.051Z,9.3
2023-12-03T11:24:07.434Z,9.3
2023-12-03T11:25:47.933Z,9.3
2023-12-03T11:27:28.394Z,8.4
2023-12-03T11:29:08.820Z,8.4
2023-12-03T11:30:49.363Z,8.4
2023-12-03T11:32:35.582Z,8.4
2023-12-03T11:34:10.361Z,8.4
2023-12-03T11:35:50.630Z,8.4
2023-12-03T11:37:31.097Z,12.7
2023-12-03T11:39:11.544Z,12.7
2023-12-03T11:40:51.990Z,12.7
2023-12-03T11:42:32.395Z,12.7
2023-12-03T11:44:12.824Z,12.7
2023-12-03T11:45:53.281Z,12.7
2023-12-03T11:47:33.683Z,13.6
2023-12-03T11:49:14.142Z,13.6
2023-12-03T11:50:54.435Z,13.6
2023-12-03T11:52:34.905Z,13.6
2023-12-03T11:54:15.296Z,13.6
2023-12-03T11:55:55.783Z,13.6
2023-12-03T11:57:36.372Z,11.8
2023-12-03T11:59:16.668Z,11.8
2023-12-03T12:00:57.008Z,11.8
2023-12-03T12:02:37.526Z,11.8
2023-12-03T12:04:17.963Z,11.8
2023-12-03T12:05:58.446Z,11.8
2023-12-03T12:07:38.791Z,13.25
2023-12-03T12:09:19.203Z,13.25
2023-12-03T12:10:59.715Z,13.25
2023-12-03T12:12:40.162Z,13.25
2023-12-03T12:14:20.763Z,13.25
2023-12-03T12:16:01.056Z,13.25
2023-12-03T12:17:41.460Z,13.6
2023-12-03T12:19:22.072Z,13.6
2023-12-03T12:21:02.362Z,13.6
2023-12-03T12:22:42.795Z,13.6
2023-12-03T12:24:23.247Z,13.6
2023-12-03T12:26:03.741Z,13.6
2023-12-03T12:27:44.149Z,13.1
2023-12-03T12:29:24.629Z,13.1
2023-12-03T12:31:05.052Z,13.1
2023-12-03T12:32:45.533Z,13.1
2023-12-03T12:34:26.048Z,13.1
2023-12-03T12:36:06.270Z,13.1
2023-12-03T12:37:46.736Z,14.1
2023-12-03T12:39:27.215Z,14.1
2023-12-03T12:41:07.579Z,14.1
2023-12-03T12:42:48.085Z,14.1
2023-12-03T12:44:28.433Z,14.1
2023-12-03T12:46:08.979Z,14.1
2023-12-03T12:47:56.844Z,13.9
2023-12-03T12:49:37.427Z,13.9
2023-12-03T12:51:17.736Z,13.9
2023-12-03T12:52:58.194Z,13.9
2023-12-03T12:54:38.627Z,13.9
2023-12-03T12:56:19.008Z,13.9
2023-12-03T12:57:59.591Z,11.3
2023-12-03T12:59:39.903Z,11.3
2023-12-03T13:01:20.404Z,11.3
2023-12-03T13:03:00.825Z,11.3
2023-12-03T13:04:41.484Z,11.3
2023-12-03T13:06:21.689Z,11.3
2023-12-03T13:08:02.105Z,10.65
2023-12-03T13:09:42.632Z,10.65
2023-12-03T13:11:23.052Z,10.65
2023-12-03T13:13:03.546Z,10.65
2023-12-03T13:14:44.021Z,10.65
2023-12-03T13:16:24.521Z,10.65
2023-12-03T13:18:12.776Z,10.6
2023-12-03T13:19:52.427Z,10.6
2023-12-03T13:21:32.830Z,10.6
2023-12-03T13:23:14.035Z,10.6
2023-12-03T13:24:54.477Z,10.6
2023-12-03T13:26:34.831Z,10.6
2023-12-03T13:28:15.221Z,11.1
2023-12-03T13:29:55.846Z,11.1
2023-12-03T13:31:36.271Z,11.1
2023-12-03T13:33:16.795Z,11.1
2023-12-03T13:34:57.106Z,11.1
2023-12-03T13:36:41.589Z,11.1
2023-12-03T13:38:21.938Z,11.25
2023-12-03T13:40:02.515Z,11.25
2023-12-03T13:41:42.814Z,11.25
2023-12-03T13:43:23.217Z,11.25
2023-12-03T13:45:03.716Z,11.25
2023-12-03T13:46:44.072Z,11.25
2023-12-03T13:48:24.727Z,10.4
2023-12-03T13:50:04.962Z,10.4
2023-12-03T13:51:45.477Z,10.4
2023-12-03T13:53:25.781Z,10.4
2023-12-03T13:55:06.213Z,10.4
2023-12-03T13:56:46.707Z,10.4
2023-12-03T13:58:27.084Z,11.3
2023-12-03T14:00:07.578Z,11.3
2023-12-03T14:01:47.913Z,11.3
2023-12-03T14:03:28.291Z,11.3
2023-12-03T14:05:20.075Z,11.3
2023-12-03T14:06:49.199Z,11.3
2023-12-03T14:08:29.665Z,11.6
2023-12-03T14:10:10.054Z,11.6
2023-12-03T14:11:50.598Z,11.6
2023-12-03T14:13:30.999Z,11.6
2023-12-03T14:15:11.399Z,11.6
2023-12-03T14:16:51.804Z,11.6
2023-12-03T14:18:32.538Z,10.7
2023-12-03T14:20:12.649Z,10.7
2023-12-03T14:21:53.439Z,10.7
2023-12-03T14:23:33.430Z,10.7
2023-12-03T14:25:13.875Z,10.7
2023-12-03T14:26:54.358Z,10.7
2023-12-03T14:28:34.745Z,8.7
2023-12-03T14:30:15.251Z,8.7
2023-12-03T14:31:55.650Z,8.7
2023-12-03T14:33:36.157Z,8.7
2023-12-03T14:35:16.420Z,8.7
2023-12-03T14:36:56.825Z,8.7
2023-12-03T14:38:37.267Z,8.7
2023-12-03T14:40:17.739Z,8.7
2023-12-03T14:41:58.164Z,8.7
2023-12-03T14:43:38.578Z,8.7
2023-12-03T14:45:19.043Z,8.7
2023-12-03T14:46:59.490Z,8.7
2023-12-03T14:48:40.014Z,11.3
2023-12-03T14:50:20.411Z,11.3
2023-12-03T14:52:00.888Z,11.3
2023-12-03T14:53:41.194Z,11.3
2023-12-03T14:55:21.622Z,11.3
2023-12-03T14:57:02.046Z,11.3
2023-12-03T14:58:42.340Z,13.15
2023-12-03T15:00:22.790Z,13.15
2023-12-03T15:02:03.176Z,13.15
2023-12-03T15:03:43.579Z,13.15
2023-12-03T15:05:23.874Z,13.15
2023-12-03T15:07:04.267Z,13.15
2023-12-03T15:08:44.713Z,15.3
2023-12-03T15:10:25.070Z,15.3
2023-12-03T15:12:05.571Z,15.3
2023-12-03T15:13:45.968Z,15.3
2023-12-03T15:15:26.278Z,15.3
2023-12-03T15:17:06.682Z,15.3
2023-12-03T15:18:47.212Z,16.2
2023-12-03T15:20:27.627Z,16.2
2023-12-03T15:22:08.017Z,16.2
2023-12-03T15:23:48.540Z,16.2
2023-12-03T15:25:28.980Z,16.2
2023-12-03T15:27:09.497Z,16.2
2023-12-03T15:28:50.088Z,16.2
2023-12-03T15:30:30.644Z,16.2
2023-12-03T15:32:10.825Z,16.2
2023-12-03T15:33:51.341Z,16.2
2023-12-03T15:35:31.837Z,16.2
2023-12-03T15:37:12.189Z,16.2
2023-12-03T15:38:52.577Z,14.9
2023-12-03T15:40:33.025Z,14.9
2023-12-03T15:42:13.466Z,14.9
2023-12-03T15:43:53.877Z,14.9
2023-12-03T15:45:34.222Z,14.9
2023-12-03T15:47:14.558Z,14.9
2023-12-03T15:48:59.116Z,17.1
2023-12-03T15:50:35.376Z,17.1
2023-12-03T15:52:15.774Z,17.1
2023-12-03T15:53:56.129Z,17.1
2023-12-03T15:55:36.655Z,17.1
2023-12-03T15:57:17.117Z,17.1
2023-12-03T15:58:57.546Z,14.2
2023-12-03T16:00:38.012Z,14.2
2023-12-03T16:02:18.502Z,14.2
2023-12-03T16:03:59.004Z,14.2
2023-12-03T16:05:39.509Z,14.2
2023-12-03T16:07:19.845Z,14.2
2023-12-03T16:09:00.300Z,16.2
2023-12-03T16:10:40.740Z,16.2
2023-12-03T16:12:21.241Z,16.2
2023-12-03T16:14:01.726Z,16.2
2023-12-03T16:15:42.111Z,16.2
2023-12-03T16:17:27.533Z,16.2
2023-12-03T16:19:03.021Z,15.6
2023-12-03T16:20:43.372Z,15.6
2023-12-03T16:22:23.811Z,15.6
2023-12-03T16:24:04.219Z,15.6
2023-12-03T16:25:44.701Z,15.6
2023-12-03T16:27:25.120Z,15.6
2023-12-03T16:29:06.662Z,16.8
2023-12-03T16:30:45.997Z,16.8
2023-12-03T16:32:26.425Z,16.8
2023-12-03T16:34:06.989Z,16.8
2023-12-03T16:35:47.490Z,16.8
2023-12-03T16:37:27.786Z,16.8
2023-12-03T16:39:08.220Z,17.1
2023-12-03T16:40:48.713Z,17.1
2023-12-03T16:42:30.560Z,17.1
2023-12-03T16:44:09.672Z,17.1
2023-12-03T16:45:50.101Z,17.1
2023-12-03T16:47:30.708Z,17.1
2023-12-03T16:49:11.107Z,18.8
2023-12-03T16:50:51.409Z,18.8
2023-12-03T16:52:31.938Z,18.8
2023-12-03T16:54:12.450Z,18.8
2023-12-03T16:55:52.915Z,18.8
2023-12-03T16:57:33.273Z,18.8
2023-12-03T16:59:13.679Z,17.3
2023-12-03T17:00:54.197Z,17.3
2023-12-03T17:02:34.653Z,17.3
2023-12-03T17:04:15.044Z,17.3
2023-12-03T17:05:55.619Z,17.3
2023-12-03T17:07:36.037Z,17.3
2023-12-03T17:09:16.493Z,19.2
2023-12-03T17:10:56.883Z,19.2
2023-12-03T17:12:44.593Z,19.2
2023-12-03T17:14:17.730Z,19.2
2023-12-03T17:15:58.380Z,19.2
2023-12-03T17:17:38.793Z,19.2
2023-12-03T17:19:19.341Z,15.5
2023-12-03T17:20:59.671Z,15.5
2023-12-03T17:22:40.057Z,15.5
2023-12-03T17:24:20.508Z,15.5
2023-12-03T17:26:00.928Z,15.5
2023-12-03T17:27:41.357Z,15.5
2023-12-03T17:29:21.784Z,16.3
2023-12-03T17:31:02.269Z,16.3
2023-12-03T17:32:42.664Z,16.3
2023-12-03T17:34:23.172Z,16.3
2023-12-03T17:36:03.515Z,16.3
2023-12-03T17:37:43.975Z,16.3
2023-12-03T17:39:24.345Z,16.3
2023-12-03T17:41:04.749Z,18.3
2023-12-03T17:42:45.186Z,18.3
2023-12-03T17:44:25.631Z,18.3
2023-12-03T17:46:06.159Z,18.3
2023-12-03T17:47:46.499Z,18.3
2023-12-03T17:49:26.904Z,18.3
2023-12-03T17:51:07.227Z,17.6
2023-12-03T17:52:47.737Z,17.6
2023-12-03T17:54:28.239Z,17.6
2023-12-03T17:56:10.710Z,17.6
2023-12-03T17:57:49.130Z,17.6
2023-12-03T17:59:29.546Z,17.6
2023-12-03T18:01:10.103Z,15.9
2023-12-03T18:02:50.524Z,15.9
2023-12-03T18:04:31.003Z,15.9
2023-12-03T18:06:11.437Z,15.9
2023-12-03T18:07:51.896Z,15.9
2023-12-03T18:09:32.331Z,15.9
2023-12-03T18:11:12.709Z,10.2
2023-12-03T18:12:53.182Z,10.2
2023-12-03T18:14:33.567Z,10.2
2023-12-03T18:16:14.037Z,10.2
2023-12-03T18:17:57.441Z,10.2
2023-12-03T18:19:34.984Z,10.2
2023-12-03T18:21:15.265Z,12.1
2023-12-03T18:22:55.704Z,12.1
2023-12-03T18:24:36.152Z,12.1
2023-12-03T18:26:16.518Z,12.1
2023-12-03T18:27:56.990Z,12.1
2023-12-03T18:29:37.356Z,12.1
2023-12-03T18:31:17.852Z,15.4
2023-12-03T18:32:58.324Z,15.4
2023-12-03T18:34:38.592Z,15.4
2023-12-03T18:36:19.034Z,15.4
2023-12-03T18:37:59.452Z,15.4
2023-12-03T18:39:39.919Z,15.4
2023-12-03T18:41:20.301Z,16.4
2023-12-03T18:43:00.735Z,16.4
2023-12-03T18:44:41.280Z,16.4
2023-12-03T18:46:21.547Z,16.4
2023-12-03T18:48:02.013Z,16.4
2023-12-03T18:49:42.399Z,14.5
2023-12-03T18:51:22.751Z,14.5
2023-12-03T18:53:03.200Z,14.5
2023-12-03T18:54:43.708Z,14.5
2023-12-03T18:56:23.973Z,14.5
2023-12-03T18:58:04.499Z,14.5
2023-12-03T18:59:46.263Z,14.5
2023-12-03T19:01:25.284Z,13.7
2023-12-03T19:03:05.793Z,13.7
2023-12-03T19:04:46.214Z,13.7
2023-12-03T19:06:26.706Z,13.7
2023-12-03T19:08:07.070Z,13.7
2023-12-03T19:09:47.571Z,13.7
2023-12-03T19:11:27.921Z,13.6
2023-12-03T19:13:16.276Z,13.6
2023-12-03T19:14:48.774Z,13.6
2023-12-03T19:16:29.264Z,13.6
2023-12-03T19:18:09.613Z,13.6
2023-12-03T19:19:49.997Z,13.6
2023-12-03T19:21:30.345Z,13.2
2023-12-03T19:23:10.649Z,13.2
2023-12-03T19:24:51.083Z,13.2
2023-12-03T19:26:31.500Z,13.2
2023-12-03T19:28:11.830Z,13.2
2023-12-03T19:29:52.265Z,13.2
2023-12-03T19:31:32.756Z,13.2
2023-12-03T19:33:13.247Z,13.2
2023-12-03T19:34:53.682Z,13.2
2023-12-03T19:36:34.077Z,13.2
2023-12-03T19:38:14.395Z,13.2
2023-12-03T19:39:54.803Z,13.2
2023-12-03T19:41:35.105Z,12.8
2023-12-03T19:43:15.460Z,12.8
2023-12-03T19:44:55.827Z,12.8
2023-12-03T19:46:36.204Z,12.8
2023-12-03T19:48:16.625Z,12.8
2023-12-03T19:49:56.947Z,12.8
2023-12-03T19:51:37.334Z,13
2023-12-03T19:53:17.674Z,13
2023-12-03T19:54:58.136Z,13
2023-12-03T19:56:38.558Z,13
2023-12-03T19:58:19.113Z,13
2023-12-03T19:59:59.332Z,13
2023-12-03T20:01:39.756Z,10.6
2023-12-03T20:03:20.055Z,10.6
2023-12-03T20:05:00.781Z,10.6
2023-12-03T20:06:40.821Z,10.6
2023-12-03T20:08:21.166Z,10.6
2023-12-03T20:10:01.948Z,10.6
2023-12-03T20:11:41.940Z,10.1
2023-12-03T20:13:22.363Z,10.1
2023-12-03T20:15:02.673Z,10.1
2023-12-03T20:16:43.029Z,10.1
2023-12-03T20:18:23.437Z,10.1
2023-12-03T20:20:03.824Z,10.1
2023-12-03T20:21:44.169Z,11.5
2023-12-03T20:23:24.480Z,11.5
2023-12-03T20:25:04.986Z,11.5
2023-12-03T20:26:45.222Z,11.5
2023-12-03T20:28:25.551Z,11.5
2023-12-03T20:30:05.886Z,11.5
2023-12-03T20:31:46.287Z,11.1
2023-12-03T20:33:26.708Z,11.1
2023-12-03T20:35:06.917Z,11.1
2023-12-03T20:36:47.448Z,11.1
2023-12-03T20:38:27.697Z,11.1
2023-12-03T20:40:08.092Z,11.1
2023-12-03T20:41:48.462Z,11.1
2023-12-03T20:43:28.772Z,11.1
2023-12-03T20:45:09.096Z,11.1
2023-12-03T20:46:49.546Z,11.1
2023-12-03T20:48:29.995Z,11.1
2023-12-03T20:50:10.358Z,11.1
2023-12-03T20:51:50.805Z,12.2
2023-12-03T20:53:32.060Z,12.2
2023-12-03T20:55:11.642Z,12.2
2023-12-03T20:56:51.941Z,12.2
2023-12-03T20:58:32.331Z,12.2
2023-12-03T21:00:12.733Z,12.2
2023-12-03T21:01:53.218Z,8.1
2023-12-03T21:03:33.642Z,8.1
2023-12-03T21:05:13.912Z,8.1
2023-12-03T21:06:54.396Z,8.1
2023-12-03T21:08:34.673Z,8.1
2023-12-03T21:10:15.026Z,8.1
2023-12-03T21:11:55.466Z,10.7
2023-12-03T21:13:35.913Z,10.7
2023-12-03T21:15:16.343Z,10.7
2023-12-03T21:16:56.647Z,10.7
2023-12-03T21:18:37.181Z,10.7
2023-12-03T21:20:17.486Z,10.7
2023-12-03T21:21:58.014Z,11.4
2023-12-03T21:23:38.408Z,11.4
2023-12-03T21:25:18.824Z,11.4
2023-12-03T21:26:59.271Z,11.4
2023-12-03T21:28:39.641Z,11.4
2023-12-03T21:30:20.083Z,11.4
2023-12-03T21:32:00.600Z,12.9
2023-12-03T21:33:41.135Z,12.9
2023-12-03T21:35:21.480Z,12.9
2023-12-03T21:37:02.052Z,12.9
2023-12-03T21:38:42.566Z,12.9
2023-12-03T21:40:22.990Z,12.9
2023-12-03T21:42:03.424Z,14.3
2023-12-03T21:43:43.863Z,14.3
2023-12-03T21:45:24.323Z,14.3
2023-12-03T21:47:04.778Z,14.3
2023-12-03T21:48:45.216Z,14.3
2023-12-03T21:50:25.585Z,14.3
2023-12-03T21:52:06.044Z,13.4
2023-12-03T21:53:46.494Z,13.4
2023-12-03T21:55:26.916Z,13.4
2023-12-03T21:57:07.338Z,13.4
2023-12-03T21:58:47.763Z,13.4
2023-12-03T22:00:28.357Z,13.4
2023-12-03T22:02:08.858Z,13.7
2023-12-03T22:03:49.365Z,13.7
2023-12-03T22:05:29.606Z,13.7
2023-12-03T22:07:09.958Z,13.7
2023-12-03T22:08:50.367Z,13.7
2023-12-03T22:10:30.722Z,13.7
2023-12-03T22:12:11.109Z,13.9
2023-12-03T22:13:51.650Z,13.9
2023-12-03T22:15:31.966Z,13.9
2023-12-03T22:17:12.282Z,13.9
2023-12-03T22:18:52.702Z,13.9
2023-12-03T22:20:32.953Z,13.9
2023-12-03T22:22:13.461Z,14
2023-12-03T22:23:53.723Z,14